sensor_id;sensor_type;location;lat;lon;timestamp;temperature;humidity
65536;DHT22;52145;49.342;9.116;2023-04-01T00:00:53;10.90;99.90
65536;DHT22;52145;49.342;9.116;2023-04-01T00:03:20;10.90;99.90
65536;DHT22;52145;49.342;9.116;2023-04-01T00:05:46;10.90;99.90
65536;DHT22;52145;49.342;9.116;2023-04-01T00:08:11;10.90;99.90
65536;DHT22;52145;49.342;9.116;2023-04-01T00:10:37;10.90;99.90
65536;DHT22;52145;49.342;9.116;2023-04-01T00:13:03;10.90;99.90
65536;DHT22;52145;49.342;9.116;2023-04-01T00:15:29;10.90;99.90
65536;DHT22;52145;49.342;9.116;2023-04-01T00:17:54;10.90;99.90
65536;DHT22;52145;49.342;9.116;2023-04-01T00:20:21;10.90;99.90
65536;DHT22;52145;49.342;9.116;2023-04-01T00:22:46;10.90;99.90
65536;DHT22;52145;49.342;9.116;2023-04-01T00:25:12;10.90;99.90
65536;DHT22;52145;49.342;9.116;2023-04-01T00:27:38;10.90;99.90
65536;DHT22;52145;49.342;9.116;2023-04-01T00:30:04;10.90;99.90
65536;DHT22;52145;49.342;9.116;2023-04-01T00:32:30;10.80;99.90
65536;DHT22;52145;49.342;9.116;2023-04-01T00:34:56;10.80;99.90
65536;DHT22;52145;49.342;9.116;2023-04-01T00:37:24;10.80;99.90
65536;DHT22;52145;49.342;9.116;2023-04-01T00:39:49;10.70;99.90
65536;DHT22;52145;49.342;9.116;2023-04-01T00:42:15;10.80;99.90
65536;DHT22;52145;49.342;9.116;2023-04-01T00:44:41;10.80;99.90
65536;DHT22;52145;49.342;9.116;2023-04-01T00:47:07;10.80;99.90
65536;DHT22;52145;49.342;9.116;2023-04-01T00:49:36;10.70;99.90
65536;DHT22;52145;49.342;9.116;2023-04-01T00:52:04;10.70;99.90
65536;DHT22;52145;49.342;9.116;2023-04-01T00:54:32;10.70;99.90
65536;DHT22;52145;49.342;9.116;2023-04-01T00:57:19;10.70;99.90
65536;DHT22;52145;49.342;9.116;2023-04-01T00:59:47;10.70;99.90
65536;DHT22;52145;49.342;9.116;2023-04-01T01:02:17;10.80;99.90
65536;DHT22;52145;49.342;9.116;2023-04-01T01:04:44;10.80;99.90
65536;DHT22;52145;49.342;9.116;2023-04-01T01:07:17;10.70;99.90
65536;DHT22;52145;49.342;9.116;2023-04-01T01:09:54;10.80;99.90
65536;DHT22;52145;49.342;9.116;2023-04-01T01:15:32;10.70;99.90
65536;DHT22;52145;49.342;9.116;2023-04-01T01:18:09;10.80;99.90
65536;DHT22;52145;49.342;9.116;2023-04-01T01:26:33;10.80;99.90
65536;DHT22;52145;49.342;9.116;2023-04-01T01:32:17;10.80;99.90
65536;DHT22;52145;49.342;9.116;2023-04-01T01:37:39;10.80;99.90
65536;DHT22;52145;49.342;9.116;2023-04-01T01:40:08;10.70;99.90
65536;DHT22;52145;49.342;9.116;2023-04-01T01:42:38;10.80;99.90
65536;DHT22;52145;49.342;9.116;2023-04-01T01:45:06;10.80;99.90
65536;DHT22;52145;49.342;9.116;2023-04-01T01:47:33;10.80;99.90
65536;DHT22;52145;49.342;9.116;2023-04-01T01:50:00;10.80;99.90
65536;DHT22;52145;49.342;9.116;2023-04-01T01:52:27;10.80;99.90
65536;DHT22;52145;49.342;9.116;2023-04-01T01:54:57;10.80;99.90
65536;DHT22;52145;49.342;9.116;2023-04-01T01:57:31;10.80;99.90
65536;DHT22;52145;49.342;9.116;2023-04-01T02:00:07;10.70;99.90
65536;DHT22;52145;49.342;9.116;2023-04-01T02:02:42;10.70;99.90
65536;DHT22;52145;49.342;9.116;2023-04-01T02:05:10;10.70;99.90
65536;DHT22;52145;49.342;9.116;2023-04-01T02:07:43;10.70;99.90
65536;DHT22;52145;49.342;9.116;2023-04-01T02:10:12;10.70;99.90
65536;DHT22;52145;49.342;9.116;2023-04-01T02:12:38;10.70;99.90
65536;DHT22;52145;49.342;9.116;2023-04-01T02:15:08;10.70;99.90
65536;DHT22;52145;49.342;9.116;2023-04-01T02:17:38;10.70;99.90
65536;DHT22;52145;49.342;9.116;2023-04-01T02:20:15;10.70;99.90
65536;DHT22;52145;49.342;9.116;2023-04-01T02:22:50;10.70;99.90
65536;DHT22;52145;49.342;9.116;2023-04-01T02:25:18;10.70;99.90
65536;DHT22;52145;49.342;9.116;2023-04-01T02:27:45;10.70;99.90
65536;DHT22;52145;49.342;9.116;2023-04-01T02:30:12;10.70;99.90
65536;DHT22;52145;49.342;9.116;2023-04-01T02:32:39;10.70;99.90
65536;DHT22;52145;49.342;9.116;2023-04-01T02:35:07;10.80;99.90
65536;DHT22;52145;49.342;9.116;2023-04-01T02:37:36;10.70;99.90
65536;DHT22;52145;49.342;9.116;2023-04-01T02:40:04;10.70;99.90
65536;DHT22;52145;49.342;9.116;2023-04-01T02:42:31;10.70;99.90
65536;DHT22;52145;49.342;9.116;2023-04-01T02:44:57;10.70;99.90
65536;DHT22;52145;49.342;9.116;2023-04-01T02:47:23;10.70;99.90
65536;DHT22;52145;49.342;9.116;2023-04-01T02:49:48;10.60;99.90
65536;DHT22;52145;49.342;9.116;2023-04-01T02:52:14;10.60;99.90
65536;DHT22;52145;49.342;9.116;2023-04-01T02:54:39;10.60;99.90
65536;DHT22;52145;49.342;9.116;2023-04-01T02:57:05;10.60;99.90
65536;DHT22;52145;49.342;9.116;2023-04-01T02:59:31;10.60;99.90
65536;DHT22;52145;49.342;9.116;2023-04-01T03:01:57;10.60;99.90
65536;DHT22;52145;49.342;9.116;2023-04-01T03:04:22;10.60;99.90
65536;DHT22;52145;49.342;9.116;2023-04-01T03:06:48;10.60;99.90
65536;DHT22;52145;49.342;9.116;2023-04-01T03:09:13;10.60;99.90
65536;DHT22;52145;49.342;9.116;2023-04-01T03:11:40;10.60;99.90
65536;DHT22;52145;49.342;9.116;2023-04-01T03:14:06;10.60;99.90
65536;DHT22;52145;49.342;9.116;2023-04-01T03:16:32;10.60;99.90
65536;DHT22;52145;49.342;9.116;2023-04-01T03:18:57;10.60;99.90
65536;DHT22;52145;49.342;9.116;2023-04-01T03:21:25;10.60;99.90
65536;DHT22;52145;49.342;9.116;2023-04-01T03:23:51;10.60;99.90
65536;DHT22;52145;49.342;9.116;2023-04-01T03:26:17;10.60;99.90
65536;DHT22;52145;49.342;9.116;2023-04-01T03:28:43;10.60;99.90
65536;DHT22;52145;49.342;9.116;2023-04-01T03:31:09;10.60;99.90
65536;DHT22;52145;49.342;9.116;2023-04-01T03:33:34;10.60;99.90
65536;DHT22;52145;49.342;9.116;2023-04-01T03:36:00;10.60;99.90
65536;DHT22;52145;49.342;9.116;2023-04-01T03:38:26;10.60;99.90
65536;DHT22;52145;49.342;9.116;2023-04-01T03:40:51;10.60;99.90
65536;DHT22;52145;49.342;9.116;2023-04-01T03:43:17;10.60;99.90
65536;DHT22;52145;49.342;9.116;2023-04-01T03:45:46;10.60;99.90
65536;DHT22;52145;49.342;9.116;2023-04-01T03:48:13;10.60;99.90
65536;DHT22;52145;49.342;9.116;2023-04-01T03:50:39;10.60;99.90
65536;DHT22;52145;49.342;9.116;2023-04-01T03:53:04;10.70;99.90
65536;DHT22;52145;49.342;9.116;2023-04-01T03:55:30;10.60;99.90
65536;DHT22;52145;49.342;9.116;2023-04-01T03:57:55;10.60;99.90
65536;DHT22;52145;49.342;9.116;2023-04-01T04:00:21;10.60;99.90
65536;DHT22;52145;49.342;9.116;2023-04-01T04:02:47;10.60;99.90
65536;DHT22;52145;49.342;9.116;2023-04-01T04:05:13;10.60;99.90
65536;DHT22;52145;49.342;9.116;2023-04-01T04:07:39;10.60;99.90
65536;DHT22;52145;49.342;9.116;2023-04-01T04:10:05;10.60;99.90
65536;DHT22;52145;49.342;9.116;2023-04-01T04:12:31;10.60;99.90
65536;DHT22;52145;49.342;9.116;2023-04-01T04:14:57;10.60;99.90
65536;DHT22;52145;49.342;9.116;2023-04-01T04:17:22;10.60;99.90
65536;DHT22;52145;49.342;9.116;2023-04-01T04:19:48;10.60;99.90
65536;DHT22;52145;49.342;9.116;2023-04-01T04:22:13;10.60;99.90
65536;DHT22;52145;49.342;9.116;2023-04-01T04:24:39;10.50;99.90
65536;DHT22;52145;49.342;9.116;2023-04-01T04:27:05;10.50;99.90
65536;DHT22;52145;49.342;9.116;2023-04-01T04:29:30;10.40;99.90
65536;DHT22;52145;49.342;9.116;2023-04-01T04:31:56;10.40;99.90
65536;DHT22;52145;49.342;9.116;2023-04-01T04:34:22;10.40;99.90
65536;DHT22;52145;49.342;9.116;2023-04-01T04:36:48;10.40;99.90
65536;DHT22;52145;49.342;9.116;2023-04-01T04:39:14;10.30;99.90
65536;DHT22;52145;49.342;9.116;2023-04-01T04:41:40;10.30;99.90
65536;DHT22;52145;49.342;9.116;2023-04-01T04:44:06;10.30;99.90
65536;DHT22;52145;49.342;9.116;2023-04-01T04:46:31;10.20;99.90
65536;DHT22;52145;49.342;9.116;2023-04-01T04:48:57;10.20;99.90
65536;DHT22;52145;49.342;9.116;2023-04-01T04:51:23;10.10;99.90
65536;DHT22;52145;49.342;9.116;2023-04-01T04:53:49;10.10;99.90
65536;DHT22;52145;49.342;9.116;2023-04-01T04:56:21;10.10;99.90
65536;DHT22;52145;49.342;9.116;2023-04-01T04:58:47;10.10;99.90
65536;DHT22;52145;49.342;9.116;2023-04-01T05:01:15;10.10;99.90
65536;DHT22;52145;49.342;9.116;2023-04-01T05:03:41;10.10;99.90
65536;DHT22;52145;49.342;9.116;2023-04-01T05:06:08;10.10;99.90
65536;DHT22;52145;49.342;9.116;2023-04-01T05:08:34;10.10;99.90
65536;DHT22;52145;49.342;9.116;2023-04-01T05:11:00;10.10;99.90
65536;DHT22;52145;49.342;9.116;2023-04-01T05:13:26;10.10;99.90
65536;DHT22;52145;49.342;9.116;2023-04-01T05:15:52;10.10;99.90
65536;DHT22;52145;49.342;9.116;2023-04-01T05:18:18;10.20;99.90
65536;DHT22;52145;49.342;9.116;2023-04-01T05:20:52;10.20;99.90
65536;DHT22;52145;49.342;9.116;2023-04-01T05:23:18;10.30;99.90
65536;DHT22;52145;49.342;9.116;2023-04-01T05:25:46;10.30;99.90
65536;DHT22;52145;49.342;9.116;2023-04-01T05:28:12;10.30;99.90
65536;DHT22;52145;49.342;9.116;2023-04-01T05:30:42;10.40;99.90
65536;DHT22;52145;49.342;9.116;2023-04-01T05:33:09;10.40;99.90
65536;DHT22;52145;49.342;9.116;2023-04-01T05:35:35;10.50;99.90
65536;DHT22;52145;49.342;9.116;2023-04-01T05:38:01;10.60;99.90
65536;DHT22;52145;49.342;9.116;2023-04-01T05:40:28;10.60;99.90
65536;DHT22;52145;49.342;9.116;2023-04-01T05:42:53;10.60;99.90
65536;DHT22;52145;49.342;9.116;2023-04-01T05:45:19;10.70;99.90
65536;DHT22;52145;49.342;9.116;2023-04-01T05:47:44;10.70;99.90
65536;DHT22;52145;49.342;9.116;2023-04-01T05:50:10;10.70;99.90
65536;DHT22;52145;49.342;9.116;2023-04-01T05:52:37;10.70;99.90
65536;DHT22;52145;49.342;9.116;2023-04-01T05:55:03;10.80;99.90
65536;DHT22;52145;49.342;9.116;2023-04-01T05:57:29;10.80;99.90
65536;DHT22;52145;49.342;9.116;2023-04-01T05:59:55;10.80;99.90
65536;DHT22;52145;49.342;9.116;2023-04-01T06:02:20;10.80;99.90
65536;DHT22;52145;49.342;9.116;2023-04-01T06:04:46;10.80;99.90
65536;DHT22;52145;49.342;9.116;2023-04-01T06:07:13;10.80;99.90
65536;DHT22;52145;49.342;9.116;2023-04-01T06:09:39;10.90;99.90
65536;DHT22;52145;49.342;9.116;2023-04-01T06:12:16;10.90;99.90
65536;DHT22;52145;49.342;9.116;2023-04-01T06:15:06;10.90;99.90
65536;DHT22;52145;49.342;9.116;2023-04-01T06:23:02;10.80;99.90
65536;DHT22;52145;49.342;9.116;2023-04-01T06:34:26;10.80;99.90
65536;DHT22;52145;49.342;9.116;2023-04-01T06:37:03;10.80;99.90
65536;DHT22;52145;49.342;9.116;2023-04-01T06:39:54;10.80;99.90
65536;DHT22;52145;49.342;9.116;2023-04-01T06:45:44;10.70;99.90
65536;DHT22;52145;49.342;9.116;2023-04-01T06:48:16;10.70;99.90
65536;DHT22;52145;49.342;9.116;2023-04-01T06:51:01;10.70;99.90
65536;DHT22;52145;49.342;9.116;2023-04-01T06:54:03;10.70;99.90
65536;DHT22;52145;49.342;9.116;2023-04-01T06:56:30;10.60;99.90
65536;DHT22;52145;49.342;9.116;2023-04-01T06:59:03;10.60;99.90
65536;DHT22;52145;49.342;9.116;2023-04-01T07:01:37;10.60;99.90
65536;DHT22;52145;49.342;9.116;2023-04-01T07:04:25;10.80;99.90
65536;DHT22;52145;49.342;9.116;2023-04-01T07:09:41;10.70;99.90
65536;DHT22;52145;49.342;9.116;2023-04-01T07:12:18;10.60;99.90
65536;DHT22;52145;49.342;9.116;2023-04-01T07:14:48;10.40;99.90
65536;DHT22;52145;49.342;9.116;2023-04-01T07:17:28;10.30;99.90
65536;DHT22;52145;49.342;9.116;2023-04-01T07:20:01;10.30;99.90
65536;DHT22;52145;49.342;9.116;2023-04-01T07:22:35;10.20;99.90
65536;DHT22;52145;49.342;9.116;2023-04-01T07:25:21;10.10;99.90
65536;DHT22;52145;49.342;9.116;2023-04-01T07:27:48;10.00;99.90
65536;DHT22;52145;49.342;9.116;2023-04-01T07:30:18;10.00;99.90
65536;DHT22;52145;49.342;9.116;2023-04-01T07:33:01;9.90;99.90
65536;DHT22;52145;49.342;9.116;2023-04-01T07:35:56;9.90;99.90
65536;DHT22;52145;49.342;9.116;2023-04-01T07:41:11;9.80;99.90
65536;DHT22;52145;49.342;9.116;2023-04-01T07:43:53;9.70;99.90
65536;DHT22;52145;49.342;9.116;2023-04-01T07:49:06;9.60;99.90
65536;DHT22;52145;49.342;9.116;2023-04-01T07:57:04;9.60;99.90
65536;DHT22;52145;49.342;9.116;2023-04-01T08:10:45;9.60;99.90
65536;DHT22;52145;49.342;9.116;2023-04-01T08:18:43;9.60;99.90
65536;DHT22;52145;49.342;9.116;2023-04-01T08:21:21;9.60;99.90
65536;DHT22;52145;49.342;9.116;2023-04-01T08:23:52;9.70;99.90
65536;DHT22;52145;49.342;9.116;2023-04-01T08:26:42;9.70;99.90
65536;DHT22;52145;49.342;9.116;2023-04-01T08:29:13;9.70;99.90
65536;DHT22;52145;49.342;9.116;2023-04-01T08:31:58;9.70;99.90
65536;DHT22;52145;49.342;9.116;2023-04-01T08:34:34;9.70;99.90
65536;DHT22;52145;49.342;9.116;2023-04-01T08:40:28;9.70;99.90
65536;DHT22;52145;49.342;9.116;2023-04-01T08:43:09;9.70;99.90
65536;DHT22;52145;49.342;9.116;2023-04-01T08:48:48;9.60;99.90
65536;DHT22;52145;49.342;9.116;2023-04-01T08:54:35;9.60;99.90
65536;DHT22;52145;49.342;9.116;2023-04-01T08:59:52;9.80;99.90
65536;DHT22;52145;49.342;9.116;2023-04-01T09:21:28;9.90;99.90
65536;DHT22;52145;49.342;9.116;2023-04-01T09:32:33;9.90;99.90
65536;DHT22;52145;49.342;9.116;2023-04-01T09:43:45;9.80;99.90
65536;DHT22;52145;49.342;9.116;2023-04-01T09:49:10;9.90;99.90
65536;DHT22;52145;49.342;9.116;2023-04-01T09:51:53;10.10;99.90
65536;DHT22;52145;49.342;9.116;2023-04-01T10:12:41;10.20;99.90
65536;DHT22;52145;49.342;9.116;2023-04-01T10:21:16;10.20;99.90
65536;DHT22;52145;49.342;9.116;2023-04-01T10:26:38;10.20;99.90
65536;DHT22;52145;49.342;9.116;2023-04-01T10:31:59;10.10;99.90
65536;DHT22;52145;49.342;9.116;2023-04-01T10:37:15;10.30;99.90
65536;DHT22;52145;49.342;9.116;2023-04-01T10:43:06;10.40;99.90
65536;DHT22;52145;49.342;9.116;2023-04-01T10:57:08;10.20;99.90
65536;DHT22;52145;49.342;9.116;2023-04-01T11:11:32;10.40;99.90
65536;DHT22;52145;49.342;9.116;2023-04-01T11:25:48;10.50;99.90
65536;DHT22;52145;49.342;9.116;2023-04-01T11:56:27;10.40;99.90
65536;DHT22;52145;49.342;9.116;2023-04-01T12:02:51;10.40;99.90
65536;DHT22;52145;49.342;9.116;2023-04-01T12:08:13;10.60;99.90
65536;DHT22;52145;49.342;9.116;2023-04-01T12:16:10;10.70;99.90
65536;DHT22;52145;49.342;9.116;2023-04-01T12:18:51;10.80;99.90
65536;DHT22;52145;49.342;9.116;2023-04-01T12:21:36;11.00;99.90
65536;DHT22;52145;49.342;9.116;2023-04-01T12:24:28;10.90;99.90
65536;DHT22;52145;49.342;9.116;2023-04-01T12:32:27;10.70;99.90
65536;DHT22;52145;49.342;9.116;2023-04-01T12:37:57;10.70;99.90
65536;DHT22;52145;49.342;9.116;2023-04-01T12:40:40;10.70;99.90
65536;DHT22;52145;49.342;9.116;2023-04-01T12:46:32;11.10;99.90
65536;DHT22;52145;49.342;9.116;2023-04-01T12:49:07;11.10;99.90
65536;DHT22;52145;49.342;9.116;2023-04-01T12:52:05;10.90;99.90
65536;DHT22;52145;49.342;9.116;2023-04-01T13:16:16;11.20;99.90
65536;DHT22;52145;49.342;9.116;2023-04-01T13:24:19;11.10;99.90
65536;DHT22;52145;49.342;9.116;2023-04-01T13:27:09;11.00;99.90
65536;DHT22;52145;49.342;9.116;2023-04-01T13:38:41;10.90;99.90
65536;DHT22;52145;49.342;9.116;2023-04-01T13:44:16;11.20;99.90
65536;DHT22;52145;49.342;9.116;2023-04-01T13:49:30;11.30;99.90
65536;DHT22;52145;49.342;9.116;2023-04-01T13:52:11;11.10;99.90
65536;DHT22;52145;49.342;9.116;2023-04-01T13:55:06;11.10;99.90
65536;DHT22;52145;49.342;9.116;2023-04-01T14:05:54;11.30;99.90
65536;DHT22;52145;49.342;9.116;2023-04-01T14:11:26;11.30;99.90
65536;DHT22;52145;49.342;9.116;2023-04-01T14:14:17;11.20;99.90
65536;DHT22;52145;49.342;9.116;2023-04-01T14:17:10;11.20;99.90
65536;DHT22;52145;49.342;9.116;2023-04-01T14:28:03;11.20;99.90
65536;DHT22;52145;49.342;9.116;2023-04-01T14:36:18;11.30;99.90
65536;DHT22;52145;49.342;9.116;2023-04-01T14:39:00;11.30;99.90
65536;DHT22;52145;49.342;9.116;2023-04-01T14:41:47;11.40;99.90
65536;DHT22;52145;49.342;9.116;2023-04-01T14:44:36;11.30;99.90
65536;DHT22;52145;49.342;9.116;2023-04-01T14:52:33;11.20;99.90
65536;DHT22;52145;49.342;9.116;2023-04-01T14:55:02;11.20;99.90
65536;DHT22;52145;49.342;9.116;2023-04-01T14:57:36;11.10;99.90
65536;DHT22;52145;49.342;9.116;2023-04-01T15:00:17;11.00;99.90
65536;DHT22;52145;49.342;9.116;2023-04-01T15:03:01;11.00;99.90
65536;DHT22;52145;49.342;9.116;2023-04-01T15:08:25;11.00;99.90
65536;DHT22;52145;49.342;9.116;2023-04-01T15:13:31;11.00;99.90
65536;DHT22;52145;49.342;9.116;2023-04-01T15:16:13;11.00;99.90
65536;DHT22;52145;49.342;9.116;2023-04-01T15:19:14;10.80;99.90
65536;DHT22;52145;49.342;9.116;2023-04-01T15:31:09;10.60;99.90
65536;DHT22;52145;49.342;9.116;2023-04-01T15:47:29;10.60;99.90
65536;DHT22;52145;49.342;9.116;2023-04-01T15:55:50;10.70;99.90
65536;DHT22;52145;49.342;9.116;2023-04-01T16:12:53;10.60;99.90
65536;DHT22;52145;49.342;9.116;2023-04-01T16:20:53;10.60;99.90
65536;DHT22;52145;49.342;9.116;2023-04-01T16:29:03;10.70;99.90
65536;DHT22;52145;49.342;9.116;2023-04-01T16:31:55;10.60;99.90
65536;DHT22;52145;49.342;9.116;2023-04-01T16:34:34;10.70;99.90
65536;DHT22;52145;49.342;9.116;2023-04-01T16:37:07;10.70;99.90
65536;DHT22;52145;49.342;9.116;2023-04-01T16:40:11;10.80;99.90
65536;DHT22;52145;49.342;9.116;2023-04-01T16:45:37;10.90;99.90
65536;DHT22;52145;49.342;9.116;2023-04-01T16:48:13;10.90;99.90
65536;DHT22;52145;49.342;9.116;2023-04-01T16:54:27;10.90;99.90
65536;DHT22;52145;49.342;9.116;2023-04-01T16:56:55;10.90;99.90
65536;DHT22;52145;49.342;9.116;2023-04-01T16:59:38;10.80;99.90
65536;DHT22;52145;49.342;9.116;2023-04-01T17:04:47;10.80;99.90
65536;DHT22;52145;49.342;9.116;2023-04-01T17:10:06;10.70;99.90
65536;DHT22;52145;49.342;9.116;2023-04-01T17:21:08;10.60;99.90
65536;DHT22;52145;49.342;9.116;2023-04-01T17:23:52;10.60;99.90
65536;DHT22;52145;49.342;9.116;2023-04-01T17:26:50;10.50;99.90
65536;DHT22;52145;49.342;9.116;2023-04-01T17:29:25;10.50;99.90
65536;DHT22;52145;49.342;9.116;2023-04-01T17:32:04;10.40;99.90
65536;DHT22;52145;49.342;9.116;2023-04-01T17:34:40;10.40;99.90
65536;DHT22;52145;49.342;9.116;2023-04-01T17:37:31;10.40;99.90
65536;DHT22;52145;49.342;9.116;2023-04-01T17:45:54;10.30;99.90
65536;DHT22;52145;49.342;9.116;2023-04-01T17:52:10;10.30;99.90
